createdAt,value
2022-12-16T00:00:36.331Z,99053.03
2022-12-16T00:03:24.851Z,99056.03
2022-12-16T00:06:13.421Z,99059.63
2022-12-16T00:09:02.531Z,99060.94
2022-12-16T00:11:51.174Z,99063.50
2022-12-16T00:14:40.257Z,99071.34
2022-12-16T00:17:30.239Z,99070.38
2022-12-16T00:20:18.700Z,99073.84
2022-12-16T00:23:07.460Z,99072.47
2022-12-16T00:25:56.238Z,99073.25
2022-12-16T00:28:44.712Z,99083.53
2022-12-16T00:31:33.493Z,99073.00
2022-12-16T00:34:23.484Z,99073.84
2022-12-16T00:37:13.322Z,99085.88
2022-12-16T00:40:01.759Z,99081.75
2022-12-16T00:42:50.337Z,98986.53
2022-12-16T00:45:41.065Z,99042.94
2022-12-16T00:48:29.602Z,99109.25
2022-12-16T00:51:19.419Z,99123.41
2022-12-16T00:54:07.910Z,99114.63
2022-12-16T00:56:56.398Z,99121.81
2022-12-16T00:59:44.867Z,99125.38
2022-12-16T01:02:33.426Z,99131.63
2022-12-16T01:05:26.903Z,99144.69
2022-12-16T01:08:17.186Z,99109.53
2022-12-16T01:11:06.255Z,99086.59
2022-12-16T01:13:55.239Z,99139.34
2022-12-16T01:16:43.888Z,99138.09
2022-12-16T01:19:32.399Z,99141.69
2022-12-16T01:22:21.912Z,99138.84
2022-12-16T01:25:13.836Z,99141.19
2022-12-16T01:28:02.433Z,99140.66
2022-12-16T01:30:50.891Z,99146.00
2022-12-16T01:33:39.485Z,99146.59
2022-12-16T01:36:28.177Z,99153.00
2022-12-16T01:39:16.615Z,99133.22
2022-12-16T01:42:07.058Z,99133.38
2022-12-16T01:44:55.559Z,99141.66
2022-12-16T01:47:44.052Z,99144.44
2022-12-16T01:50:32.988Z,99139.63
2022-12-16T01:53:21.589Z,99125.88
2022-12-16T01:56:11.816Z,99139.69
2022-12-16T01:59:01.974Z,99122.25
2022-12-16T02:01:50.481Z,99141.66
2022-12-16T02:04:59.140Z,99142.00
2022-12-16T02:10:44.747Z,99143.88
2022-12-16T02:13:39.865Z,99153.31
2022-12-16T02:16:34.321Z,99158.41
2022-12-16T02:19:56.177Z,99158.47
2022-12-16T02:22:54.036Z,99158.00
2022-12-16T02:25:58.702Z,99161.78
2022-12-16T02:29:01.073Z,99161.63
2022-12-16T02:31:55.293Z,99159.81
2022-12-16T02:34:50.531Z,99136.16
2022-12-16T02:37:42.269Z,99162.28
2022-12-16T02:40:35.624Z,99166.59
2022-12-16T02:43:45.621Z,99162.28
2022-12-16T02:46:35.202Z,99137.53
2022-12-16T02:49:47.128Z,99138.13
2022-12-16T02:52:36.188Z,99179.06
2022-12-16T02:55:29.281Z,99174.84
2022-12-16T02:58:20.096Z,99185.59
2022-12-16T03:01:14.317Z,99196.63
2022-12-16T03:04:05.795Z,99194.97
2022-12-16T03:06:56.225Z,99198.44
2022-12-16T03:09:45.503Z,99202.41
2022-12-16T03:12:35.171Z,99191.59
2022-12-16T03:15:25.454Z,99199.66
2022-12-16T03:18:15.068Z,99200.19
2022-12-16T03:21:06.964Z,99168.09
2022-12-16T03:23:59.843Z,99194.81
2022-12-16T03:26:54.053Z,99205.75
2022-12-16T03:29:46.647Z,99193.50
2022-12-16T03:32:39.078Z,99203.09
2022-12-16T03:35:31.014Z,99216.72
2022-12-16T03:38:21.721Z,99210.06
2022-12-16T03:41:12.102Z,99210.59
2022-12-16T03:44:00.659Z,99195.22
2022-12-16T03:46:49.171Z,99213.84
2022-12-16T03:49:38.172Z,99222.72
2022-12-16T03:52:26.643Z,99225.69
2022-12-16T03:55:15.337Z,99225.63
2022-12-16T03:58:05.431Z,99228.91
2022-12-16T04:00:53.969Z,99235.75
2022-12-16T04:03:43.983Z,99230.66
2022-12-16T04:06:32.568Z,99214.69
2022-12-16T04:09:20.986Z,99244.94
2022-12-16T04:12:27.085Z,99239.97
2022-12-16T04:15:33.698Z,99244.09
2022-12-16T04:18:39.718Z,99209.72
2022-12-16T04:21:45.843Z,99259.06
2022-12-16T04:24:34.595Z,99257.63
2022-12-16T04:27:27.448Z,99256.28
2022-12-16T04:30:21.676Z,99255.44
2022-12-16T04:33:29.975Z,99259.84
2022-12-16T04:36:35.983Z,99262.06
2022-12-16T04:39:41.879Z,99232.59
2022-12-16T04:42:48.174Z,99273.44
2022-12-16T04:45:57.419Z,99278.19
2022-12-16T04:49:03.360Z,99283.59
2022-12-16T04:52:09.610Z,99289.56
2022-12-16T04:55:15.736Z,99290.69
2022-12-16T04:58:22.526Z,99301.66
2022-12-16T05:01:30.062Z,99295.00
2022-12-16T05:04:36.087Z,99302.06
2022-12-16T05:07:42.285Z,99308.28
2022-12-16T05:10:48.338Z,99293.56
2022-12-16T05:13:54.381Z,99302.94
2022-12-16T05:17:01.663Z,99325.31
2022-12-16T05:20:07.713Z,99324.50
2022-12-16T05:23:14.332Z,99337.78
2022-12-16T05:26:20.386Z,99341.13
2022-12-16T05:29:26.636Z,99344.75
2022-12-16T05:32:33.869Z,99362.56
2022-12-16T05:35:40.014Z,99357.19
2022-12-16T05:38:46.014Z,99373.66
2022-12-16T05:41:52.293Z,99375.75
2022-12-16T05:44:58.544Z,99377.28
2022-12-16T05:48:08.002Z,99350.91
2022-12-16T05:51:14.128Z,99387.78
2022-12-16T05:54:20.291Z,99342.88
2022-12-16T05:57:26.469Z,99400.06
2022-12-16T06:00:33.680Z,99404.66
2022-12-16T06:03:41.296Z,99406.31
2022-12-16T06:06:47.377Z,99418.88
2022-12-16T06:09:56.850Z,99396.78
2022-12-16T06:13:05.349Z,99426.19
2022-12-16T06:16:11.480Z,99420.78
2022-12-16T06:19:19.771Z,99419.00
2022-12-16T06:22:25.634Z,99428.81
2022-12-16T06:25:31.851Z,99421.50
2022-12-16T06:28:40.928Z,99431.41
2022-12-16T06:31:49.075Z,99439.72
2022-12-16T06:34:58.789Z,99440.53
2022-12-16T06:38:05.900Z,99455.16
2022-12-16T06:41:12.126Z,99464.13
2022-12-16T06:44:18.255Z,99463.44
2022-12-16T06:47:24.436Z,99473.34
2022-12-16T06:50:31.868Z,99483.69
2022-12-16T06:53:38.095Z,99484.81
2022-12-16T06:56:44.186Z,99492.94
2022-12-16T06:59:50.272Z,99489.41
2022-12-16T07:02:56.288Z,99499.78
2022-12-16T07:06:03.516Z,99499.22
2022-12-16T07:09:09.490Z,99510.38
2022-12-16T07:12:15.584Z,99524.97
2022-12-16T07:15:21.828Z,99526.84
2022-12-16T07:18:28.119Z,99531.88
2022-12-16T07:21:35.599Z,99542.03
2022-12-16T07:24:41.811Z,99547.09
2022-12-16T07:27:47.915Z,99552.34
2022-12-16T07:30:54.104Z,99549.97
2022-12-16T07:34:00.115Z,99555.72
2022-12-16T07:37:07.546Z,99563.75
2022-12-16T07:40:13.683Z,99566.50
2022-12-16T07:43:19.656Z,99566.66
2022-12-16T07:46:25.730Z,99581.75
2022-12-16T07:49:31.605Z,99582.59
2022-12-16T07:52:39.096Z,99563.13
2022-12-16T07:55:45.236Z,99601.66
2022-12-16T07:58:56.736Z,99593.84
2022-12-16T08:02:02.980Z,99572.47
2022-12-16T08:05:08.983Z,99571.06
2022-12-16T08:08:12.750Z,99610.63
2022-12-16T08:11:19.053Z,99366.53
2022-12-16T08:14:24.932Z,99614.56
2022-12-16T08:17:30.663Z,99487.09
2022-12-16T08:20:36.569Z,99620.38
2022-12-16T08:23:43.954Z,99621.78
2022-12-16T08:26:49.942Z,99641.75
2022-12-16T08:29:57.134Z,99632.84
2022-12-16T08:33:13.485Z,99637.38
2022-12-16T08:36:25.435Z,99657.72
2022-12-16T08:39:32.768Z,99647.28
2022-12-16T08:42:38.872Z,99660.44
2022-12-16T08:45:45.135Z,99659.59
2022-12-16T08:48:51.442Z,99665.66
2022-12-16T08:51:57.421Z,99674.69
2022-12-16T08:55:04.873Z,99666.63
2022-12-16T08:58:10.625Z,99675.34
2022-12-16T09:01:16.888Z,99680.91
2022-12-16T09:04:22.787Z,99689.13
2022-12-16T09:07:28.916Z,99691.16
2022-12-16T09:10:40.423Z,99694.53
2022-12-16T09:13:46.914Z,99708.03
2022-12-16T09:16:52.948Z,99670.81
2022-12-16T09:19:59.447Z,99711.00
2022-12-16T09:23:05.407Z,99718.78
2022-12-16T09:26:12.734Z,99708.16
2022-12-16T09:29:18.569Z,99708.03
2022-12-16T09:32:24.535Z,99719.56
2022-12-16T09:35:30.741Z,99722.38
2022-12-16T09:38:36.910Z,99723.41
2022-12-16T09:41:55.585Z,99735.63
2022-12-16T09:45:09.926Z,99733.72
2022-12-16T09:48:23.202Z,99740.56
2022-12-16T09:51:38.702Z,99742.66
2022-12-16T09:54:46.975Z,99751.06
2022-12-16T09:57:55.567Z,99750.41
2022-12-16T10:01:01.871Z,99747.94
2022-12-16T10:04:08.278Z,99726.03
2022-12-16T10:07:17.806Z,99740.75
2022-12-16T10:10:35.614Z,99746.88
2022-12-16T10:13:50.526Z,99749.41
2022-12-16T10:17:03.473Z,99723.50
2022-12-16T10:20:13.998Z,99711.06
2022-12-16T10:23:23.781Z,99744.16
2022-12-16T10:26:34.838Z,99746.34
2022-12-16T10:29:46.249Z,99745.41
2022-12-16T10:32:56.976Z,99741.88
2022-12-16T10:36:06.190Z,99754.44
2022-12-16T10:39:16.806Z,99745.81
2022-12-16T10:42:23.836Z,99738.72
2022-12-16T10:45:38.048Z,99746.47
2022-12-16T10:48:56.296Z,99740.63
2022-12-16T10:52:06.891Z,99747.94
2022-12-16T10:55:21.320Z,99765.00
2022-12-16T10:58:36.818Z,99762.50
2022-12-16T11:01:46.054Z,99761.94
2022-12-16T11:04:55.557Z,99767.06
2022-12-16T11:08:11.787Z,99758.84
2022-12-16T11:11:31.572Z,99769.50
2022-12-16T11:14:50.296Z,99769.66
2022-12-16T11:18:23.122Z,99770.34
2022-12-16T11:21:32.342Z,99770.66
2022-12-16T11:24:39.357Z,99770.09
2022-12-16T11:27:45.954Z,99778.97
2022-12-16T11:30:52.217Z,99790.19
2022-12-16T11:34:00.948Z,99782.69
2022-12-16T11:37:09.367Z,99784.78
2022-12-16T11:40:17.162Z,99787.69
2022-12-16T11:43:24.024Z,99793.38
2022-12-16T11:46:43.845Z,99784.38
2022-12-16T11:49:52.241Z,99797.41
2022-12-16T11:52:58.812Z,99797.28
2022-12-16T11:56:13.924Z,99794.63
2022-12-16T11:59:26.898Z,99803.50
2022-12-16T12:02:35.807Z,99806.53
2022-12-16T12:05:47.310Z,99806.97
2022-12-16T12:08:57.793Z,99808.22
2022-12-16T12:12:10.042Z,99810.28
2022-12-16T12:15:20.251Z,99811.81
2022-12-16T12:18:34.666Z,99818.34
2022-12-16T12:21:43.870Z,99817.47
2022-12-16T12:24:57.947Z,99818.47
2022-12-16T12:28:12.262Z,99792.72
2022-12-16T12:31:22.448Z,99828.69
2022-12-16T12:34:32.958Z,99826.75
2022-12-16T12:37:44.931Z,99834.50
2022-12-16T12:40:59.931Z,99846.84
2022-12-16T12:44:14.182Z,99841.97
2022-12-16T12:47:23.514Z,99846.25
2022-12-16T12:50:32.599Z,99843.06
2022-12-16T12:53:46.963Z,99852.22
2022-12-16T12:57:01.400Z,99807.88
2022-12-16T13:00:13.164Z,99852.75
2022-12-16T13:03:23.678Z,99847.75
2022-12-16T13:06:32.449Z,99854.41
2022-12-16T13:09:45.243Z,99845.94
2022-12-16T13:12:52.392Z,99853.41
2022-12-16T13:15:58.656Z,99853.56
2022-12-16T13:19:08.047Z,99854.69
2022-12-16T13:22:15.495Z,99858.69
2022-12-16T13:25:54.795Z,99864.94
2022-12-16T13:29:01.541Z,99871.72
2022-12-16T13:32:19.178Z,99874.22
2022-12-16T13:35:35.950Z,99831.44
2022-12-16T13:38:42.159Z,99890.59
2022-12-16T13:42:10.291Z,99885.47
2022-12-16T13:45:17.383Z,99875.50
2022-12-16T13:48:35.190Z,99904.34
2022-12-16T13:52:15.652Z,99916.56
2022-12-16T13:55:32.204Z,99880.38
2022-12-16T13:58:56.938Z,99918.13
2022-12-16T14:02:08.789Z,99909.91
2022-12-16T14:05:15.328Z,99923.50
2022-12-16T14:08:23.047Z,99932.13
2022-12-16T14:11:36.028Z,99942.53
2022-12-16T14:14:45.902Z,99942.09
2022-12-16T14:17:56.563Z,99945.25
2022-12-16T14:21:03.910Z,99948.03
2022-12-16T14:24:12.513Z,99948.88
2022-12-16T14:27:24.274Z,99953.06
2022-12-16T14:30:36.856Z,99972.59
2022-12-16T14:33:44.577Z,99980.13
2022-12-16T14:37:12.059Z,99975.53
2022-12-16T14:40:18.034Z,99985.13
2022-12-16T14:43:30.989Z,99989.13
2022-12-16T14:46:45.179Z,99991.75
2022-12-16T14:49:52.085Z,99972.34
2022-12-16T14:52:58.482Z,99997.88
2022-12-16T14:56:04.469Z,99989.16
2022-12-16T14:59:25.684Z,100005.25
2022-12-16T15:02:49.719Z,99981.78
2022-12-16T15:05:56.925Z,99988.69
2022-12-16T15:09:07.246Z,99999.94
2022-12-16T15:12:13.928Z,100008.13
2022-12-16T15:15:23.238Z,100009.25
2022-12-16T15:18:34.590Z,100017.81
2022-12-16T15:21:40.575Z,100021.56
2022-12-16T15:24:47.481Z,100030.47
2022-12-16T15:27:54.513Z,100040.28
2022-12-16T15:31:02.643Z,100040.28
2022-12-16T15:34:40.061Z,100036.41
2022-12-16T15:37:49.632Z,100024.72
2022-12-16T15:40:57.753Z,100064.69
2022-12-16T15:44:04.904Z,100064.00
2022-12-16T15:47:10.961Z,100078.56
2022-12-16T15:50:21.353Z,100078.28
2022-12-16T15:53:34.839Z,100084.53
2022-12-16T15:56:42.372Z,100078.44
2022-12-16T15:59:49.653Z,100076.06
2022-12-16T16:02:55.689Z,100075.78
2022-12-16T16:06:03.305Z,100087.44
2022-12-16T16:09:10.040Z,100093.78
2022-12-16T16:12:16.225Z,100090.59
2022-12-16T16:15:24.539Z,100089.06
2022-12-16T16:18:30.652Z,100097.97
2022-12-16T16:21:38.662Z,100109.34
2022-12-16T16:24:45.061Z,100110.88
2022-12-16T16:27:51.335Z,100125.19
2022-12-16T16:30:59.729Z,100119.91
2022-12-16T16:34:05.790Z,100122.94
2022-12-16T16:37:14.660Z,100131.25
2022-12-16T16:40:23.849Z,100137.78
2022-12-16T16:43:30.038Z,100134.03
2022-12-16T16:46:49.821Z,100144.56
2022-12-16T16:49:58.895Z,100148.56
2022-12-16T16:53:06.397Z,100147.72
2022-12-16T16:56:18.081Z,100115.88
2022-12-16T16:59:27.675Z,100164.50
2022-12-16T17:02:40.826Z,100163.78
2022-12-16T17:05:47.567Z,100159.75
2022-12-16T17:08:55.271Z,100153.38
2022-12-16T17:12:01.333Z,100164.19
2022-12-16T17:15:07.466Z,100173.66
2022-12-16T17:18:13.838Z,100171.16
2022-12-16T17:21:20.082Z,100167.47
2022-12-16T17:24:27.618Z,100185.84
2022-12-16T17:27:34.913Z,100180.56
2022-12-16T17:30:46.838Z,100191.38
2022-12-16T17:33:53.894Z,100195.41
2022-12-16T17:37:00.087Z,100194.72
2022-12-16T17:40:15.909Z,100200.81
2022-12-16T17:43:22.117Z,100207.19
2022-12-16T17:46:29.864Z,100214.81
2022-12-16T17:49:36.102Z,100207.88
2022-12-16T17:52:42.194Z,100064.78
2022-12-16T17:55:49.651Z,100229.91
2022-12-16T17:58:56.701Z,100225.22
2022-12-16T18:02:03.220Z,100224.38
2022-12-16T18:05:09.235Z,100212.97
2022-12-16T18:08:15.283Z,100218.22
2022-12-16T18:11:22.882Z,100241.84
2022-12-16T18:14:28.389Z,100236.03
2022-12-16T18:17:34.526Z,100248.22
2022-12-16T18:20:40.604Z,100244.06
2022-12-16T18:23:48.224Z,100248.94
2022-12-16T18:26:55.713Z,100255.09
2022-12-16T18:30:07.442Z,100261.59
2022-12-16T18:33:13.779Z,100259.91
2022-12-16T18:36:19.615Z,100253.63
2022-12-16T18:39:25.719Z,100256.25
2022-12-16T18:42:33.313Z,100267.75
2022-12-16T18:45:39.426Z,100274.94
2022-12-16T18:48:45.342Z,100275.78
2022-12-16T18:51:52.522Z,100284.06
2022-12-16T18:54:58.742Z,100283.22
2022-12-16T18:58:20.852Z,100283.47
2022-12-16T19:01:32.126Z,100294.25
2022-12-16T19:04:38.271Z,100293.69
2022-12-16T19:07:44.413Z,100292.59
2022-12-16T19:10:50.555Z,100299.78
2022-12-16T19:13:58.144Z,100307.69
2022-12-16T19:17:03.993Z,100313.91
2022-12-16T19:20:10.126Z,100316.56
2022-12-16T19:23:16.238Z,100310.59
2022-12-16T19:26:22.421Z,100308.34
2022-12-16T19:29:29.862Z,100317.19
2022-12-16T19:32:36.285Z,100306.41
2022-12-16T19:35:42.225Z,100335.66
2022-12-16T19:38:50.721Z,100333.41
2022-12-16T19:41:56.896Z,100336.28
2022-12-16T19:45:04.014Z,100347.88
2022-12-16T19:48:10.280Z,100343.13
2022-12-16T19:51:16.511Z,100347.16
2022-12-16T19:54:22.781Z,100355.66
2022-12-16T19:57:28.980Z,100355.91
2022-12-16T20:00:36.751Z,100380.81
2022-12-16T20:03:42.985Z,100374.56
2022-12-16T20:06:49.492Z,100266.63
2022-12-16T20:09:56.094Z,100397.09
2022-12-16T20:13:02.293Z,100385.13
2022-12-16T20:16:09.755Z,100399.38
2022-12-16T20:19:16.475Z,100400.78
2022-12-16T20:22:22.599Z,100391.59
2022-12-16T20:25:28.878Z,100386.81
2022-12-16T20:28:35.040Z,100394.09
2022-12-16T20:31:42.578Z,100396.34
2022-12-16T20:34:48.821Z,100392.41
2022-12-16T20:41:22.370Z,100347.91
2022-12-16T20:44:28.615Z,100410.16
2022-12-16T20:47:36.195Z,100417.78
2022-12-16T20:50:42.375Z,100412.97
2022-12-16T20:53:48.608Z,100416.28
2022-12-16T20:56:54.869Z,100427.28
2022-12-16T21:00:02.068Z,100428.41
2022-12-16T21:03:09.361Z,100442.94
2022-12-16T21:06:15.582Z,100442.75
2022-12-16T21:09:21.679Z,100448.34
2022-12-16T21:12:27.715Z,100426.25
2022-12-16T21:15:33.831Z,100458.03
2022-12-16T21:18:41.750Z,100466.47
2022-12-16T21:21:47.927Z,100466.41
2022-12-16T21:24:54.214Z,100482.47
2022-12-16T21:28:02.218Z,100479.72
2022-12-16T21:31:08.177Z,100485.63
2022-12-16T21:34:15.617Z,100479.34
2022-12-16T21:37:21.659Z,100482.06
2022-12-16T21:40:28.634Z,100491.19
2022-12-16T21:43:34.736Z,100496.34
2022-12-16T21:46:40.825Z,100496.25
2022-12-16T21:49:48.351Z,100508.50
2022-12-16T21:52:54.429Z,100507.88
2022-12-16T21:56:02.704Z,100522.53
2022-12-16T21:59:20.146Z,100530.09
2022-12-16T22:02:29.009Z,100524.59
2022-12-16T22:05:36.457Z,100540.78
2022-12-16T22:08:42.576Z,100529.28
2022-12-16T22:11:48.682Z,100533.28
2022-12-16T22:14:54.782Z,100541.22
2022-12-16T22:18:01.952Z,100546.47
2022-12-16T22:21:16.575Z,100553.69
2022-12-16T22:24:22.651Z,100557.25
2022-12-16T22:27:28.743Z,100564.38
2022-12-16T22:30:34.902Z,100559.75
2022-12-16T22:33:40.721Z,100575.19
2022-12-16T22:36:21.269Z,100390.81
2022-12-16T22:36:48.116Z,100574.25
2022-12-16T22:39:59.437Z,100587.56
2022-12-16T22:43:06.657Z,100577.19
2022-12-16T22:46:20.377Z,100581.56
2022-12-16T22:49:26.319Z,100582.25
2022-12-16T22:52:33.572Z,100587.94
2022-12-16T22:55:39.709Z,100604.09
2022-12-16T22:58:45.885Z,100602.13
2022-12-16T23:01:51.984Z,100601.28
2022-12-16T23:04:57.357Z,100588.78
2022-12-16T23:08:04.754Z,100601.56
2022-12-16T23:11:13.987Z,100604.53
2022-12-16T23:14:20.022Z,100607.16
2022-12-16T23:17:25.295Z,100613.13
2022-12-16T23:20:31.373Z,100616.50
2022-12-16T23:23:39.086Z,100618.25
2022-12-16T23:26:45.352Z,100612.59
2022-12-16T23:29:59.803Z,100609.91
2022-12-16T23:33:05.758Z,100621.06
2022-12-16T23:36:11.776Z,100615.06
2022-12-16T23:39:19.019Z,100617.44
2022-12-16T23:42:24.929Z,100620.44
2022-12-16T23:45:31.113Z,100631.78
2022-12-16T23:48:37.598Z,100637.19
2022-12-16T23:51:43.902Z,100631.69
2022-12-16T23:54:51.485Z,100630.34
2022-12-16T23:57:57.946Z,100634.97
